Time;durP1;ratioP1;P1;durP2;ratioP2;P2;SDS_P1;SDS_P2;PMS_P1;PMS_P2;Temp;Humidity;BMP_temperature;BMP_pressure;BME280_temperature;BME280_humidity;BME280_pressure;Samples;Min_cycle;Max_cycle;Signal;HPM_P1;HPM_P2
2022/07/22 05:48:25;;;;;;;;;18.75;16.25;;;;;21.31;60.91;101690.94;2346028;29;45553;-76
2022/07/22 05:49:35;;;;;;;;;16.50;16.00;;;;;21.33;60.73;101694.41;2356030;29;45486;-76
2022/07/22 05:50:46;;;;;;;;;18.00;16.25;;;;;21.34;60.53;101696.09;2356396;29;45304;-76
2022/07/22 05:52:00;;;;;;;;;23.50;17.25;;;;;21.35;60.29;101694.28;2356096;29;45248;-77
2022/07/22 05:53:10;;;;;;;;;18.25;16.25;;;;;21.38;60.88;101686.09;2353477;29;45766;-77
2022/07/22 05:54:21;;;;;;;;;18.25;16.25;;;;;21.40;60.42;101688.66;2354720;29;45264;-77
2022/07/22 05:55:32;;;;;;;;;17.75;16.50;;;;;21.39;60.36;101686.91;2344088;29;47397;-77
2022/07/22 05:56:42;;;;;;;;;16.25;14.25;;;;;21.42;60.58;101692.06;2349497;29;44938;-77
2022/07/22 05:57:53;;;;;;;;;19.50;15.75;;;;;21.42;60.71;101690.28;2355205;29;46411;-77
2022/07/22 05:59:04;;;;;;;;;15.50;15.50;;;;;21.45;60.38;101686.53;2345930;29;45296;-77
2022/07/22 06:00:14;;;;;;;;;19.50;18.25;;;;;21.43;60.26;101685.78;2348546;29;45344;-77
2022/07/22 06:01:26;;;;;;;;;17.75;17.25;;;;;21.41;60.29;101682.34;2355287;29;45423;-77
2022/07/22 06:02:37;;;;;;;;;15.25;14.00;;;;;21.43;60.56;101685.78;2354096;29;46780;-76
2022/07/22 06:03:47;;;;;;;;;20.50;18.00;;;;;21.42;60.10;101690.28;2354655;29;45431;-77
2022/07/22 06:05:00;;;;;;;;;16.50;16.50;;;;;21.42;60.56;101686.72;2363445;28;48265;-77
2022/07/22 06:06:10;;;;;;;;;18.25;15.50;;;;;21.42;60.20;101684.06;2351470;29;45401;-76
2022/07/22 06:07:21;;;;;;;;;17.75;16.75;;;;;21.41;60.46;101682.34;2348546;29;47340;-76
2022/07/22 06:08:31;;;;;;;;;20.00;17.25;;;;;21.41;60.59;101682.34;2353335;29;45664;-77
2022/07/22 06:09:41;;;;;;;;;23.25;18.50;;;;;21.42;60.64;101678.72;2354858;29;48542;-77
2022/07/22 06:10:52;;;;;;;;;21.25;17.25;;;;;21.45;60.67;101678.50;2364074;29;44874;-76
2022/07/22 06:12:02;;;;;;;;;18.00;14.50;;;;;21.49;60.50;101677.34;2362258;29;45493;-77
2022/07/22 06:13:13;;;;;;;;;13.25;13.25;;;;;21.51;60.68;101678.09;2356356;29;45574;-76
2022/07/22 06:14:23;;;;;;;;;15.50;13.75;;;;;21.55;60.55;101679.63;2355351;29;46172;-76
2022/07/22 06:15:33;;;;;;;;;17.25;17.25;;;;;21.58;60.28;101676.75;2345416;29;45797;-77
2022/07/22 06:16:44;;;;;;;;;18.00;16.25;;;;;21.61;60.19;101680.19;2348697;29;45383;-77
2022/07/22 06:17:54;;;;;;;;;17.00;15.50;;;;;21.61;60.08;101682.88;2355096;29;45623;-76
2022/07/22 06:19:04;;;;;;;;;13.25;11.75;;;;;21.62;60.43;101688.13;2345814;29;47062;-77
2022/07/22 06:20:15;;;;;;;;;19.75;16.50;;;;;21.66;60.34;101686.09;2348408;29;45292;-76
2022/07/22 06:21:25;;;;;;;;;17.00;15.00;;;;;21.67;60.54;101696.69;2355031;29;45538;-77
2022/07/22 06:22:35;;;;;;;;;18.25;14.25;;;;;21.69;59.79;101693.91;2356043;29;44773;-77
2022/07/22 06:23:46;;;;;;;;;16.75;16.00;;;;;21.71;59.99;101700.00;2346931;29;46953;-77
2022/07/22 06:24:56;;;;;;;;;20.75;19.25;;;;;21.70;59.71;101698.31;2349942;29;45332;-76
2022/07/22 06:26:06;;;;;;;;;18.25;16.00;;;;;21.67;59.89;101703.84;2357254;29;45603;-76
2022/07/22 06:27:17;;;;;;;;;19.00;16.75;;;;;21.66;60.11;101691.44;2347757;29;45273;-75
2022/07/22 06:28:28;;;;;;;;;17.75;16.75;;;;;21.65;59.88;101693.28;2349849;29;46863;-75
2022/07/22 06:29:38;;;;;;;;;15.75;15.75;;;;;21.67;60.17;101690.50;2357068;29;47083;-74
2022/07/22 06:30:48;;;;;;;;;19.50;17.00;;;;;21.67;60.42;101699.38;2357552;29;45265;-75
2022/07/22 06:31:59;;;;;;;;;16.25;15.00;;;;;21.69;60.38;101688.56;2356988;29;45299;-75
2022/07/22 06:33:09;;;;;;;;;15.00;11.50;;;;;21.71;60.07;101689.31;2356710;29;46311;-75
2022/07/22 06:34:20;;;;;;;;;13.75;13.50;;;;;21.74;59.60;101683.78;2357035;29;45220;-75
2022/07/22 06:35:30;;;;;;;;;18.75;16.00;;;;;21.74;59.87;101689.13;2357180;29;47107;-74
2022/07/22 06:36:40;;;;;;;;;19.25;17.25;;;;;21.74;60.24;101689.13;2357582;29;45245;-75
2022/07/22 06:37:51;;;;;;;;;22.00;18.25;;;;;21.76;60.12;101687.19;2364691;29;48033;-75
2022/07/22 06:39:02;;;;;;;;;16.00;14.00;;;;;21.80;60.17;101682.50;2361992;29;45851;-74
2022/07/22 06:40:12;;;;;;;;;16.75;15.25;;;;;21.84;59.94;101684.03;2354525;29;46306;-75
2022/07/22 06:41:22;;;;;;;;;17.50;13.00;;;;;21.87;60.26;101689.22;2353402;29;45523;-75
2022/07/22 06:42:33;;;;;;;;;20.25;18.75;;;;;21.91;59.79;101690.72;2350823;29;47003;-74
2022/07/22 06:43:43;;;;;;;;;22.25;19.25;;;;;21.91;59.97;101687.16;2351491;29;45625;-74
2022/07/22 06:44:53;;;;;;;;;19.00;17.75;;;;;21.93;59.32;101693.28;2346771;29;47557;-75
2022/07/22 06:46:04;;;;;;;;;19.25;16.00;;;;;21.93;59.45;101693.28;2352165;29;45482;-74
2022/07/22 06:47:14;;;;;;;;;17.50;16.75;;;;;21.91;59.31;101690.72;2364742;29;47934;-74
2022/07/22 06:48:25;;;;;;;;;21.00;17.50;;;;;21.89;59.43;101689.97;2362657;29;45251;-75
2022/07/22 06:49:35;;;;;;;;;19.50;18.75;;;;;21.89;60.29;101681.94;2364943;29;48023;-74
2022/07/22 06:50:45;;;;;;;;;21.00;18.50;;;;;21.91;59.75;101685.34;2362675;29;45688;-74
2022/07/22 06:51:56;;;;;;;;;22.75;17.25;;;;;21.89;59.31;101683.75;2358165;29;46310;-74
2022/07/22 06:53:06;;;;;;;;;17.25;15.50;;;;;21.87;59.25;101686.53;2355902;29;45354;-75
2022/07/22 06:54:16;;;;;;;;;20.25;19.75;;;;;21.87;59.97;101699.91;2346261;29;47256;-75
2022/07/22 06:55:27;;;;;;;;;15.25;14.75;;;;;21.84;59.83;101701.88;2345992;29;45516;-75
2022/07/22 06:56:37;;;;;;;;;15.75;15.00;;;;;21.81;59.79;101706.47;2352686;29;45361;-74
2022/07/22 06:57:47;;;;;;;;;23.25;17.75;;;;;21.80;59.46;101706.59;2356950;29;45280;-74
2022/07/22 06:58:58;;;;;;;;;22.50;18.00;;;;;21.78;59.91;101695.97;2357342;29;45525;-75
2022/07/22 07:00:09;;;;;;;;;17.75;17.00;;;;;21.78;60.17;101701.31;2362391;29;45432;-74
2022/07/22 07:01:19;;;;;;;;;15.25;14.50;;;;;21.79;59.81;101700.38;2348153;29;48168;-74
2022/07/22 07:02:30;;;;;;;;;20.50;17.50;;;;;21.82;59.82;101707.34;2349301;29;44666;-75
2022/07/22 07:03:40;;;;;;;;;17.50;17.50;;;;;21.85;59.82;101699.13;2355558;29;45511;-75
2022/07/22 07:04:50;;;;;;;;;17.00;16.25;;;;;21.88;59.67;101704.28;2351307;29;45248;-75
2022/07/22 07:06:02;;;;;;;;;16.25;15.25;;;;;21.89;59.78;101703.34;2350773;29;46313;-75
2022/07/22 07:07:12;;;;;;;;;22.25;18.50;;;;;21.88;59.59;101701.59;2356171;29;44753;-75
2022/07/22 07:08:22;;;;;;;;;22.25;20.00;;;;;21.89;59.92;101695.31;2355757;29;47004;-75
2022/07/22 07:09:33;;;;;;;;;18.50;16.75;;;;;21.91;59.98;101701.41;2358426;29;45180;-75
2022/07/22 07:10:44;;;;;;;;;19.50;15.75;;;;;21.95;59.81;101696.72;2346991;29;48085;-74
2022/07/22 07:11:54;;;;;;;;;19.75;16.00;;;;;21.99;59.73;101703.59;2356205;29;45463;-74
2022/07/22 07:13:04;;;;;;;;;18.75;16.75;;;;;22.04;59.76;101708.63;2351321;29;47092;-75
2022/07/22 07:14:15;;;;;;;;;22.50;19.00;;;;;22.06;59.80;101705.84;2349108;29;45438;-75
2022/07/22 07:15:26;;;;;;;;;22.75;20.75;;;;;22.06;59.37;101697.81;2355526;29;46593;-75
2022/07/22 07:16:36;;;;;;;;;19.25;17.50;;;;;22.08;59.18;101704.78;2358576;29;45303;-75
2022/07/22 07:17:46;;;;;;;;;17.00;16.50;;;;;22.12;59.57;101697.41;2360681;29;46687;-75
2022/07/22 07:18:57;;;;;;;;;17.00;14.00;;;;;22.17;58.85;101689.94;2359027;29;45233;-74
2022/07/22 07:20:08;;;;;;;;;18.00;18.00;;;;;22.18;59.25;101696.13;2355553;29;47911;-74
2022/07/22 07:21:18;;;;;;;;;19.50;18.00;;;;;22.17;59.08;101691.75;2354682;29;44618;-74
2022/07/22 07:22:28;;;;;;;;;18.75;18.25;;;;;22.15;59.47;101679.31;2340602;29;48626;-75
2022/07/22 07:23:39;;;;;;;;;18.75;17.25;;;;;22.18;59.46;101683.59;2358048;29;45345;-75
2022/07/22 07:24:50;;;;;;;;;21.75;17.75;;;;;22.22;59.14;101682.44;2361727;29;47959;-75
2022/07/22 07:26:00;;;;;;;;;18.50;13.50;;;;;22.25;59.50;101692.94;2364398;28;44772;-75
2022/07/22 07:27:11;;;;;;;;;25.25;21.75;;;;;22.30;58.95;101683.75;2362805;29;45299;-75
2022/07/22 07:28:21;;;;;;;;;19.25;17.00;;;;;22.34;59.23;101685.25;2356487;29;44786;-75
2022/07/22 07:29:32;;;;;;;;;19.00;18.00;;;;;22.39;59.05;101685.78;2357749;29;45562;-75
2022/07/22 07:30:42;;;;;;;;;23.00;19.50;;;;;22.42;58.73;101693.59;2356943;29;45386;-75
2022/07/22 07:31:53;;;;;;;;;16.75;15.25;;;;;22.46;58.34;101692.44;2356140;29;45450;-74
2022/07/22 07:33:03;;;;;;;;;23.50;20.25;;;;;22.49;58.26;101683.31;2355877;29;46923;-74
2022/07/22 07:34:15;;;;;;;;;18.50;18.25;;;;;22.53;58.13;101687.50;2361044;29;45495;-75
2022/07/22 07:35:26;;;;;;;;;17.75;17.75;;;;;22.57;58.94;101680.13;2357779;29;45324;-75
2022/07/22 07:36:36;;;;;;;;;19.75;16.75;;;;;22.62;58.54;101682.47;2348634;29;48006;-74
2022/07/22 07:37:47;;;;;;;;;18.00;16.75;;;;;22.65;58.73;101669.69;2349693;29;45478;-75
2022/07/22 07:38:57;;;;;;;;;19.50;16.25;;;;;22.71;58.34;101676.50;2355289;29;46198;-75
2022/07/22 07:40:08;;;;;;;;;21.75;18.50;;;;;22.74;58.11;101678.09;2346069;29;45386;-75
2022/07/22 07:41:18;;;;;;;;;20.00;19.75;;;;;22.78;58.27;101676.91;2354168;29;46539;-75
2022/07/22 07:42:29;;;;;;;;;20.75;17.50;;;;;22.81;58.51;101682.94;2358884;29;45244;-75
2022/07/22 07:43:39;;;;;;;;;21.25;16.50;;;;;22.86;58.52;101676.38;2348735;29;46931;-75
2022/07/22 07:44:50;;;;;;;;;20.25;18.75;;;;;22.90;57.96;101681.41;2343324;29;45309;-75
2022/07/22 07:46:01;;;;;;;;;22.75;20.50;;;;;22.95;58.43;101682.88;2349589;29;47115;-75
2022/07/22 07:47:13;;;;;;;;;19.50;16.50;;;;;22.97;57.71;101680.94;2359847;29;45305;-75
2022/07/22 07:48:23;;;;;;;;;22.25;19.25;;;;;22.95;57.63;101680.22;2355675;29;45640;-76
2022/07/22 07:49:33;;;;;;;;;14.75;14.00;;;;;22.92;57.39;101678.59;2357099;29;45374;-75
2022/07/22 07:50:44;;;;;;;;;19.50;18.50;;;;;22.88;57.23;101680.66;2357009;29;45399;-75
2022/07/22 07:51:54;;;;;;;;;22.25;19.25;;;;;22.84;57.44;101686.34;2355586;29;46124;-75
2022/07/22 07:53:05;;;;;;;;;21.50;17.25;;;;;22.80;57.82;101680.34;2356540;29;46425;-75
2022/07/22 07:54:16;;;;;;;;;24.50;20.50;;;;;22.78;58.12;101685.81;2357764;29;45352;-75
2022/07/22 07:55:26;;;;;;;;;18.75;17.25;;;;;22.78;58.43;101679.59;2351916;29;47788;-78
2022/07/22 07:56:36;;;;;;;;;19.50;17.25;;;;;22.81;58.26;101690.09;2352922;29;44802;-75
2022/07/22 07:57:48;;;;;;;;;17.75;16.00;;;;;22.84;58.23;101687.19;2364755;29;45297;-74
2022/07/22 07:58:59;;;;;;;;;16.00;15.25;;;;;22.87;58.27;101695.00;2356698;29;45242;-74
2022/07/22 08:00:11;;;;;;;;;18.25;15.25;;;;;22.92;57.85;101695.56;2355546;29;46390;-74
2022/07/22 08:01:22;;;;;;;;;26.50;21.00;;;;;22.96;57.71;101689.97;2356984;29;44611;-74
2022/07/22 08:02:33;;;;;;;;;20.75;17.50;;;;;23.00;57.87;101686.09;2343646;29;48366;-75
2022/07/22 08:03:43;;;;;;;;;22.00;19.75;;;;;23.03;57.85;101696.63;2349206;29;45337;-75
2022/07/22 08:04:54;;;;;;;;;18.50;15.50;;;;;23.06;58.36;101690.19;2346065;29;47244;-75
2022/07/22 08:06:04;;;;;;;;;18.50;17.25;;;;;23.09;57.80;101682.75;2349115;29;45464;-75
2022/07/22 08:07:15;;;;;;;;;17.75;16.50;;;;;23.13;57.40;101689.63;2342256;29;47031;-75
2022/07/22 08:08:26;;;;;;;;;16.25;15.25;;;;;23.20;57.91;101686.50;2349464;29;44669;-74
2022/07/22 08:09:37;;;;;;;;;19.50;18.25;;;;;23.25;58.05;101685.19;2352659;29;48271;-75
2022/07/22 08:10:47;;;;;;;;;19.25;14.75;;;;;23.34;57.44;101693.53;2354568;29;45545;-75
2022/07/22 08:11:57;;;;;;;;;16.00;15.25;;;;;23.41;57.53;101688.59;2347146;29;47133;-74
2022/07/22 08:13:08;;;;;;;;;21.25;19.00;;;;;23.49;57.64;101686.22;2346509;29;45160;-75
2022/07/22 08:14:19;;;;;;;;;15.75;14.75;;;;;23.57;57.33;101685.66;2353609;29;46486;-75
2022/07/22 08:15:29;;;;;;;;;19.50;18.50;;;;;23.64;57.43;101678.00;2356946;29;45420;-75
2022/07/22 08:16:40;;;;;;;;;18.50;18.50;;;;;23.68;56.81;101682.19;2355637;29;46233;-75
2022/07/22 08:17:50;;;;;;;;;18.75;17.00;;;;;23.71;56.94;101680.13;2350504;29;45324;-75
2022/07/22 08:19:01;;;;;;;;;15.25;13.75;;;;;23.76;57.00;101673.53;2346919;29;48508;-75
2022/07/22 08:20:11;;;;;;;;;20.50;20.00;;;;;23.82;56.84;101682.00;2348562;29;45240;-75
2022/07/22 08:21:22;;;;;;;;;21.75;17.50;;;;;23.88;56.17;101677.97;2346594;29;47707;-75
2022/07/22 08:22:32;;;;;;;;;18.75;14.75;;;;;23.93;56.52;101674.94;2346253;29;46137;-75
2022/07/22 08:23:42;;;;;;;;;24.50;21.25;;;;;23.98;56.08;101669.25;2352831;29;45360;-75
2022/07/22 08:24:54;;;;;;;;;20.75;15.50;;;;;24.00;56.24;101665.47;2356386;29;44765;-75
2022/07/22 08:26:04;;;;;;;;;20.00;17.50;;;;;24.03;55.89;101664.38;2356154;29;45309;-74
2022/07/22 08:27:15;;;;;;;;;22.50;19.75;;;;;24.07;55.94;101673.91;2356262;29;45371;-75
2022/07/22 08:28:25;;;;;;;;;20.50;17.25;;;;;24.07;55.96;101662.31;2345856;29;47316;-76
2022/07/22 08:29:36;;;;;;;;;20.75;17.25;;;;;24.07;55.82;101667.69;2341171;29;44765;-75
2022/07/22 08:30:46;;;;;;;;;20.25;18.75;;;;;24.08;56.28;101659.50;2330962;29;46638;-74
2022/07/22 08:31:56;;;;;;;;;21.25;20.25;;;;;24.09;56.19;101665.75;2342284;29;45374;-75
2022/07/22 08:33:08;;;;;;;;;18.25;16.75;;;;;24.10;55.41;101664.78;2345650;29;47024;-74
2022/07/22 08:34:18;;;;;;;;;20.50;19.25;;;;;24.08;55.63;101664.00;2348726;29;45696;-74
2022/07/22 08:35:29;;;;;;;;;18.50;17.00;;;;;24.05;56.03;101665.13;2355584;29;46350;-74
2022/07/22 08:36:39;;;;;;;;;17.75;17.00;;;;;24.04;55.65;101661.59;2359530;29;45355;-74
2022/07/22 08:37:49;;;;;;;;;20.75;18.50;;;;;24.03;55.84;101662.53;2355565;29;46268;-74
2022/07/22 08:39:00;;;;;;;;;21.00;16.25;;;;;24.05;56.43;101665.13;2346085;29;45240;-74
2022/07/22 08:40:11;;;;;;;;;20.00;17.50;;;;;24.08;56.00;101658.63;2355773;29;48390;-75
2022/07/22 08:41:23;;;;;;;;;19.75;19.00;;;;;24.12;56.18;101658.31;2348618;29;45495;-74
2022/07/22 08:42:37;;;;;;;;;14.50;13.50;;;;;24.16;56.11;101661.59;2347821;29;45523;-74
2022/07/22 08:43:48;;;;;;;;;20.50;19.25;;;;;24.21;55.83;101663.94;2346505;29;45200;-74
2022/07/22 08:44:59;;;;;;;;;17.50;14.00;;;;;24.25;55.87;101668.09;2349122;29;46760;-74
2022/07/22 08:46:09;;;;;;;;;18.00;15.00;;;;;24.29;55.80;101666.94;2355578;29;45455;-74
2022/07/22 08:47:21;;;;;;;;;17.75;15.25;;;;;24.35;55.96;101665.56;2352941;29;46303;-74
2022/07/22 08:48:32;;;;;;;;;15.25;15.25;;;;;24.40;55.79;101663.38;2347616;29;45414;-74
2022/07/22 08:49:42;;;;;;;;;18.25;15.75;;;;;24.45;55.27;101658.50;2354755;29;45595;-74
2022/07/22 08:50:52;;;;;;;;;20.50;15.50;;;;;24.52;55.20;101660.72;2355532;29;45802;-74
2022/07/22 08:52:03;;;;;;;;;19.25;18.00;;;;;24.58;55.62;101660.25;2345680;29;46982;-74
2022/07/22 08:53:14;;;;;;;;;17.25;16.25;;;;;24.62;55.57;101648.25;2348620;29;45378;-74
2022/07/22 08:54:24;;;;;;;;;17.75;16.00;;;;;24.67;55.18;101650.59;2355615;29;45617;-74
2022/07/22 08:55:40;;;;;;;;;18.00;17.00;;;;;24.72;55.25;101643.88;2357595;29;45195;-74
2022/07/22 08:56:52;;;;;;;;;14.75;12.75;;;;;24.78;55.12;101638.97;2345488;29;48242;-74
2022/07/22 08:58:02;;;;;;;;;18.75;15.25;;;;;24.84;55.35;101639.34;2339703;29;45463;-74
2022/07/22 08:59:13;;;;;;;;;27.00;18.75;;;;;24.91;54.99;101628.97;2349474;29;45439;-74
2022/07/22 09:00:23;;;;;;;;;16.75;14.50;;;;;24.94;54.65;101628.69;2353690;29;45473;-74
2022/07/22 09:01:34;;;;;;;;;17.00;15.25;;;;;24.98;54.42;101618.56;2356222;29;45564;-74
2022/07/22 09:02:44;;;;;;;;;15.00;15.00;;;;;25.01;54.50;101607.59;2355613;29;45256;-74
2022/07/22 09:03:56;;;;;;;;;14.75;12.75;;;;;25.08;54.59;101601.72;2355478;29;46479;-74
2022/07/22 09:05:11;;;;;;;;;18.00;16.00;;;;;25.11;54.18;101593.38;2350761;29;44813;-74
2022/07/22 09:06:25;;;;;;;;;19.00;15.00;;;;;25.10;54.18;101587.16;2354768;29;48054;-74
2022/07/22 09:07:38;;;;;;;;;14.00;13.25;;;;;25.13;54.04;101584.22;2345415;29;45415;-74
2022/07/22 09:08:54;;;;;;;;;14.25;13.75;;;;;25.18;53.75;101581.16;2349577;29;45284;-74
2022/07/22 09:10:07;;;;;;;;;15.00;14.00;;;;;25.22;53.68;101581.72;2356150;29;45212;-74
2022/07/22 09:11:19;;;;;;;;;16.50;16.50;;;;;25.25;53.85;101582.34;2354455;29;45735;-75
2022/07/22 09:12:32;;;;;;;;;17.25;15.25;;;;;25.29;53.59;101588.31;2356039;29;45224;-74
2022/07/22 09:13:43;;;;;;;;;16.25;16.25;;;;;25.33;53.89;101587.09;2356189;29;45544;-74
2022/07/22 09:14:55;;;;;;;;;18.00;16.00;;;;;25.37;53.48;101596.59;2355648;29;44735;-75
2022/07/22 09:16:06;;;;;;;;;18.25;18.25;;;;;25.42;54.08;101598.91;2346151;29;48144;-74
2022/07/22 09:17:30;;;;;;;;;15.75;14.00;;;;;25.44;53.42;101606.84;2348712;29;45363;-74
2022/07/22 09:18:54;;;;;;;;;18.00;15.50;;;;;25.46;53.68;101610.28;2363881;29;47147;-74
2022/07/22 09:20:17;;;;;;;;;17.50;16.75;;;;;25.49;53.51;101615.38;2360882;29;45373;-74
2022/07/22 09:21:30;;;;;;;;;22.25;18.75;;;;;25.51;53.36;101621.50;2355281;29;45560;-74
2022/07/22 09:22:45;;;;;;;;;16.00;15.25;;;;;25.55;53.15;101620.28;2355533;29;44768;-74
2022/07/22 09:23:56;;;;;;;;;19.00;14.50;;;;;25.58;53.32;101619.16;2346105;29;47206;-75
2022/07/22 09:25:27;;;;;;;;;21.25;17.50;;;;;25.62;53.21;101621.47;2349035;29;45447;-74
2022/07/22 09:26:39;;;;;;;;;19.75;18.00;;;;;25.63;53.19;101627.69;2356022;29;45323;-74
2022/07/22 09:27:51;;;;;;;;;16.25;15.50;;;;;25.68;53.25;101633.53;2355140;29;45316;-74
2022/07/22 09:29:03;;;;;;;;;21.00;16.50;;;;;25.71;53.03;101645.88;2352329;29;47947;-74
2022/07/22 09:30:19;;;;;;;;;17.75;16.00;;;;;25.74;52.84;101640.28;2349217;29;45527;-74
2022/07/22 09:31:36;;;;;;;;;15.25;14.75;;;;;25.79;52.23;101638.06;2349488;29;45216;-74
2022/07/22 09:32:47;;;;;;;;;17.75;15.50;;;;;25.83;52.68;101644.88;2355714;29;45403;-74
2022/07/22 09:33:58;;;;;;;;;15.75;15.00;;;;;25.87;52.34;101650.88;2345627;29;47488;-75
2022/07/22 09:35:10;;;;;;;;;15.25;14.75;;;;;25.90;52.41;101647.91;2349236;29;45362;-75
2022/07/22 09:36:21;;;;;;;;;18.00;17.00;;;;;25.92;52.16;101640.56;2356072;29;45748;-75
2022/07/22 09:37:31;;;;;;;;;17.25;16.75;;;;;25.95;52.25;101647.53;2354885;29;45901;-74
2022/07/22 09:38:42;;;;;;;;;18.25;17.75;;;;;25.98;53.01;101647.25;2355840;29;46287;-75
2022/07/22 09:39:52;;;;;;;;;20.50;17.50;;;;;26.02;52.86;101643.31;2355671;29;45482;-74
2022/07/22 09:41:03;;;;;;;;;18.00;16.00;;;;;26.04;52.75;101635.97;2355861;29;45451;-74
2022/07/22 09:42:16;;;;;;;;;16.50;16.50;;;;;26.06;52.10;101634.00;2355813;29;45378;-75
2022/07/22 09:43:32;;;;;;;;;20.50;18.50;;;;;26.07;52.09;101618.69;2355746;29;45582;-74
2022/07/22 09:44:42;;;;;;;;;21.75;17.25;;;;;26.09;52.30;101610.47;2356431;29;44666;-75
2022/07/22 09:45:57;;;;;;;;;20.00;15.50;;;;;26.10;51.68;101606.78;2345770;29;47205;-75
2022/07/22 09:47:26;;;;;;;;;22.50;17.75;;;;;26.10;52.47;101601.41;2349482;29;44728;-75
2022/07/22 09:48:40;;;;;;;;;18.75;16.00;;;;;26.12;52.54;101608.38;2346987;29;45424;-74
2022/07/22 09:49:50;;;;;;;;;15.50;13.75;;;;;26.15;52.57;101610.78;2363809;29;45482;-75
2022/07/22 09:51:01;;;;;;;;;17.25;15.75;;;;;26.18;52.68;101615.91;2362256;29;46335;-74
2022/07/22 09:52:11;;;;;;;;;17.75;17.75;;;;;26.23;52.40;101622.72;2356015;29;45432;-75
2022/07/22 09:53:29;;;;;;;;;21.25;19.25;;;;;26.26;52.68;101623.34;2345883;29;48266;-74
2022/07/22 09:54:41;;;;;;;;;23.75;19.50;;;;;26.28;51.69;101617.78;2350074;29;45297;-74
2022/07/22 09:55:51;;;;;;;;;18.50;16.25;;;;;26.30;51.72;101619.38;2355904;29;45414;-74
2022/07/22 09:57:01;;;;;;;;;18.75;16.50;;;;;26.32;51.91;101624.66;2364134;29;45284;-75
2022/07/22 09:58:12;;;;;;;;;18.50;18.00;;;;;26.36;51.71;101625.22;2363618;29;45573;-75
2022/07/22 09:59:23;;;;;;;;;23.00;20.50;;;;;26.37;51.86;101622.38;2365954;28;45498;-74
2022/07/22 10:00:36;;;;;;;;;18.25;15.75;;;;;26.36;51.71;101622.53;2353900;29;48014;-74
2022/07/22 10:01:50;;;;;;;;;17.50;17.50;;;;;26.35;52.25;101620.84;2350810;29;44715;-75
2022/07/22 10:03:02;;;;;;;;;21.50;17.25;;;;;26.36;52.06;101617.13;2346920;29;48480;-74
2022/07/22 10:04:15;;;;;;;;;19.50;19.25;;;;;26.37;51.56;101624.25;2350118;29;45451;-74
2022/07/22 10:05:28;;;;;;;;;19.00;18.00;;;;;26.37;51.61;101618.84;2357180;29;45368;-74
2022/07/22 10:06:39;;;;;;;;;16.25;15.00;;;;;26.39;51.15;101615.03;2357237;29;45393;-75
2022/07/22 10:07:51;;;;;;;;;18.25;17.50;;;;;26.41;51.49;101621.13;2346422;29;47023;-74
2022/07/22 10:09:01;;;;;;;;;19.50;19.00;;;;;26.43;51.27;101623.72;2350514;29;45297;-75
2022/07/22 10:10:14;;;;;;;;;19.00;17.00;;;;;26.43;51.67;101618.34;2357675;29;46293;-75
2022/07/22 10:11:25;;;;;;;;;22.00;18.25;;;;;26.41;51.31;101620.28;2356814;29;45383;-74
2022/07/22 10:12:37;;;;;;;;;19.25;18.00;;;;;26.39;51.21;101619.56;2347370;29;47141;-75
2022/07/22 10:13:47;;;;;;;;;15.50;15.00;;;;;26.40;51.07;101618.56;2350865;29;45268;-74
2022/07/22 10:14:58;;;;;;;;;18.25;18.25;;;;;26.41;51.12;101615.75;2356481;29;45940;-75
2022/07/22 10:16:09;;;;;;;;;19.00;17.25;;;;;26.44;50.94;101621.88;2347833;29;44612;-75
2022/07/22 10:17:19;;;;;;;;;24.00;18.50;;;;;26.45;51.75;101610.09;2350091;29;45305;-74
2022/07/22 10:18:30;;;;;;;;;17.50;17.25;;;;;26.44;51.82;101609.28;2357316;29;45238;-74
2022/07/22 10:19:41;;;;;;;;;16.00;15.75;;;;;26.44;50.91;101605.72;2357200;29;46322;-75
2022/07/22 10:21:06;;;;;;;;;20.75;17.25;;;;;26.46;51.60;101611.81;2357014;29;45227;-74
2022/07/22 10:22:38;;;;;;;;;20.00;18.75;;;;;26.44;51.03;101608.41;2346930;29;47128;-74
2022/07/22 10:24:07;;;;;;;;;22.00;18.75;;;;;26.41;51.37;101618.44;2352583;29;44853;-75
2022/07/22 10:25:19;;;;;;;;;20.75;19.00;;;;;26.40;51.77;101615.88;2357019;29;45481;-75
2022/07/22 10:26:53;;;;;;;;;22.50;21.00;;;;;26.37;51.47;101613.47;2346964;29;45176;-74
2022/07/22 10:28:05;;;;;;;;;20.75;17.00;;;;;26.33;51.49;101606.63;2353215;29;46009;-75
2022/07/22 10:29:32;;;;;;;;;21.75;21.25;;;;;26.29;51.59;101603.34;2357251;29;45358;-74
2022/07/22 10:30:42;;;;;;;;;18.75;17.00;;;;;26.27;51.98;101598.06;2356702;29;45659;-75
2022/07/22 10:32:22;;;;;;;;;22.00;21.00;;;;;26.27;51.75;101583.78;2351677;29;45269;-74
2022/07/22 10:33:35;;;;;;;;;20.25;19.75;;;;;26.26;51.76;101579.38;2351213;29;48320;-74
2022/07/22 10:34:57;;;;;;;;;17.25;17.25;;;;;26.26;51.56;101580.22;2350477;29;45518;-74
2022/07/22 10:36:09;;;;;;;;;23.75;18.50;;;;;26.24;51.71;101574.13;2347437;29;48550;-74
2022/07/22 10:37:34;;;;;;;;;17.00;16.00;;;;;26.24;52.17;101582.19;2350240;29;45230;-74
2022/07/22 10:39:09;;;;;;;;;18.50;16.50;;;;;26.21;51.69;101587.84;2356027;29;45389;-74
2022/07/22 10:40:25;;;;;;;;;20.25;18.00;;;;;26.20;51.56;101583.44;2357037;29;45430;-75
2022/07/22 10:41:43;;;;;;;;;24.75;16.25;;;;;26.15;51.90;101575.75;2356936;29;45915;-75
2022/07/22 10:42:59;;;;;;;;;22.50;21.25;;;;;26.14;52.03;101560.59;2357276;29;45269;-75
2022/07/22 10:44:11;;;;;;;;;22.25;18.75;;;;;26.12;52.43;101548.25;2347565;29;47168;-74
2022/07/22 10:45:24;;;;;;;;;22.75;18.50;;;;;26.09;53.04;101530.53;2350034;29;45548;-75
2022/07/22 10:46:52;;;;;;;;;20.25;19.75;;;;;26.07;53.37;101522.59;2357316;29;45496;-74
2022/07/22 10:48:11;;;;;;;;;25.50;23.25;;;;;26.04;52.99;101519.28;2358476;29;45323;-75
2022/07/22 10:49:24;;;;;;;;;21.50;20.50;;;;;25.99;53.95;101500.00;2357082;29;45535;-75
2022/07/22 10:50:37;;;;;;;;;20.00;19.00;;;;;25.92;53.77;101489.78;2350347;29;45174;-75
2022/07/22 10:52:06;;;;;;;;;21.75;18.50;;;;;25.88;53.74;101482.09;2356753;29;45592;-74
2022/07/22 10:53:18;;;;;;;;;22.75;19.75;;;;;25.84;53.94;101484.19;2356530;29;45482;-74
2022/07/22 10:54:29;;;;;;;;;21.00;19.25;;;;;25.82;53.67;101486.19;2346750;29;48085;-74
2022/07/22 10:56:05;;;;;;;;;21.25;18.50;;;;;25.81;53.23;101496.09;2349822;29;45409;-74
2022/07/22 10:57:31;;;;;;;;;23.50;19.75;;;;;25.82;54.65;101508.56;2350138;29;45406;-74
2022/07/22 10:58:47;;;;;;;;;20.00;19.25;;;;;25.81;54.20;101519.44;2357191;29;45575;-74
2022/07/22 10:59:58;;;;;;;;;22.50;22.00;;;;;25.80;54.88;101518.63;2357339;29;45712;-74
2022/07/22 11:01:11;;;;;;;;;25.50;21.00;;;;;25.78;54.26;101523.25;2355837;29;45345;-74
2022/07/22 11:02:22;;;;;;;;;23.50;21.75;;;;;25.77;53.91;101526.09;2355702;29;45305;-74
2022/07/22 11:03:34;;;;;;;;;21.50;21.25;;;;;25.74;54.72;101513.75;2352823;29;44768;-74
2022/07/22 11:04:44;;;;;;;;;23.75;20.25;;;;;25.73;55.08;101522.84;2347911;29;46753;-74
2022/07/22 11:05:56;;;;;;;;;22.50;18.00;;;;;25.72;54.31;101513.00;2356859;29;45368;-75
2022/07/22 11:07:06;;;;;;;;;27.50;23.50;;;;;25.72;54.83;101497.75;2356622;29;46035;-74
2022/07/22 11:08:18;;;;;;;;;30.00;23.25;;;;;25.72;55.29;101502.25;2346808;29;44746;-74
2022/07/22 11:09:34;;;;;;;;;23.00;21.50;;;;;25.71;54.93;101489.75;2348392;29;49648;-74
2022/07/22 11:10:51;;;;;;;;;24.75;21.50;;;;;25.72;55.05;101480.69;2364781;29;45208;-74
2022/07/22 11:12:01;;;;;;;;;24.00;20.00;;;;;25.72;54.71;101462.75;2352515;29;47638;-74
2022/07/22 11:13:12;;;;;;;;;28.00;21.50;;;;;25.75;54.61;101464.31;2339621;29;45526;-74
2022/07/22 11:14:31;;;;;;;;;20.00;18.75;;;;;25.78;54.03;101461.34;2358906;29;48084;-74
2022/07/22 11:15:42;;;;;;;;;24.75;24.50;;;;;25.80;55.01;101462.09;2361986;29;45481;-74
2022/07/22 11:16:54;;;;;;;;;27.00;22.50;;;;;25.80;54.66;101464.78;2356479;29;45438;-75